sensor_id;sensor_type;location;lat;lon;timestamp;P1;durP1;ratioP1;P2;durP2;ratioP2
1164;SDS011;571;50.930;6.926;2022-12-13T03:46:27;33.40;;;19.90;;
1164;SDS011;571;50.930;6.926;2022-12-13T03:48:53;40.72;;;21.33;;
1164;SDS011;571;50.930;6.926;2022-12-13T03:51:20;33.72;;;20.40;;
1164;SDS011;571;50.930;6.926;2022-12-13T03:53:47;25.67;;;18.73;;
1164;SDS011;571;50.930;6.926;2022-12-13T03:56:14;30.55;;;22.00;;
1164;SDS011;571;50.930;6.926;2022-12-13T03:58:41;32.75;;;19.75;;
1164;SDS011;571;50.930;6.926;2022-12-13T04:01:09;30.48;;;20.13;;
1164;SDS011;571;50.930;6.926;2022-12-13T04:03:39;33.88;;;19.50;;
1164;SDS011;571;50.930;6.926;2022-12-13T04:06:07;27.50;;;20.60;;
1164;SDS011;571;50.930;6.926;2022-12-13T04:08:34;29.75;;;21.20;;
1164;SDS011;571;50.930;6.926;2022-12-13T04:11:02;33.40;;;19.65;;
1164;SDS011;571;50.930;6.926;2022-12-13T04:13:49;35.20;;;23.70;;
1164;SDS011;571;50.930;6.926;2022-12-13T04:16:16;29.10;;;19.08;;
1164;SDS011;571;50.930;6.926;2022-12-13T04:18:44;36.10;;;20.83;;
1164;SDS011;571;50.930;6.926;2022-12-13T04:21:11;24.15;;;15.60;;
1164;SDS011;571;50.930;6.926;2022-12-13T04:23:37;38.80;;;21.80;;
1164;SDS011;571;50.930;6.926;2022-12-13T04:26:04;31.48;;;19.77;;
1164;SDS011;571;50.930;6.926;2022-12-13T04:28:31;24.38;;;16.50;;
1164;SDS011;571;50.930;6.926;2022-12-13T04:30:58;33.90;;;20.90;;
1164;SDS011;571;50.930;6.926;2022-12-13T04:33:24;30.88;;;22.17;;
1164;SDS011;571;50.930;6.926;2022-12-13T04:35:53;33.78;;;20.02;;
1164;SDS011;571;50.930;6.926;2022-12-13T04:38:19;32.50;;;21.35;;
1164;SDS011;571;50.930;6.926;2022-12-13T04:40:46;36.17;;;20.92;;
1164;SDS011;571;50.930;6.926;2022-12-13T04:43:13;34.25;;;21.00;;
1164;SDS011;571;50.930;6.926;2022-12-13T04:45:39;32.00;;;19.13;;
1164;SDS011;571;50.930;6.926;2022-12-13T04:48:06;31.23;;;20.17;;
1164;SDS011;571;50.930;6.926;2022-12-13T04:50:33;32.55;;;20.35;;
1164;SDS011;571;50.930;6.926;2022-12-13T04:53:02;28.90;;;20.55;;
1164;SDS011;571;50.930;6.926;2022-12-13T04:55:28;31.73;;;20.40;;
1164;SDS011;571;50.930;6.926;2022-12-13T04:57:55;32.28;;;19.63;;
1164;SDS011;571;50.930;6.926;2022-12-13T05:00:22;30.25;;;20.10;;
1164;SDS011;571;50.930;6.926;2022-12-13T05:02:49;29.45;;;20.85;;
1164;SDS011;571;50.930;6.926;2022-12-13T05:05:16;25.42;;;19.23;;
1164;SDS011;571;50.930;6.926;2022-12-13T05:07:43;36.85;;;21.13;;
1164;SDS011;571;50.930;6.926;2022-12-13T05:10:11;35.55;;;20.70;;
1164;SDS011;571;50.930;6.926;2022-12-13T05:12:38;32.75;;;22.25;;
1164;SDS011;571;50.930;6.926;2022-12-13T05:15:05;30.42;;;19.02;;
1164;SDS011;571;50.930;6.926;2022-12-13T05:17:32;26.55;;;20.48;;
1164;SDS011;571;50.930;6.926;2022-12-13T05:19:59;35.47;;;21.77;;
1164;SDS011;571;50.930;6.926;2022-12-13T05:22:26;33.88;;;21.80;;
1164;SDS011;571;50.930;6.926;2022-12-13T05:24:52;34.15;;;20.55;;
1164;SDS011;571;50.930;6.926;2022-12-13T05:27:20;35.13;;;20.55;;
1164;SDS011;571;50.930;6.926;2022-12-13T05:29:47;30.67;;;21.05;;
1164;SDS011;571;50.930;6.926;2022-12-13T05:32:14;33.55;;;21.33;;
1164;SDS011;571;50.930;6.926;2022-12-13T05:34:41;28.67;;;21.73;;
1164;SDS011;571;50.930;6.926;2022-12-13T05:37:07;31.45;;;21.33;;
1164;SDS011;571;50.930;6.926;2022-12-13T05:39:34;32.83;;;20.10;;
1164;SDS011;571;50.930;6.926;2022-12-13T05:42:01;45.28;;;21.98;;
1164;SDS011;571;50.930;6.926;2022-12-13T05:44:30;34.38;;;19.88;;
1164;SDS011;571;50.930;6.926;2022-12-13T05:46:57;33.53;;;23.17;;
1164;SDS011;571;50.930;6.926;2022-12-13T05:49:24;27.00;;;20.75;;
1164;SDS011;571;50.930;6.926;2022-12-13T05:51:51;33.05;;;20.67;;
1164;SDS011;571;50.930;6.926;2022-12-13T05:54:18;29.70;;;19.85;;
1164;SDS011;571;50.930;6.926;2022-12-13T05:56:45;32.10;;;20.70;;
1164;SDS011;571;50.930;6.926;2022-12-13T05:59:12;32.67;;;20.60;;
1164;SDS011;571;50.930;6.926;2022-12-13T06:01:40;36.22;;;21.67;;
1164;SDS011;571;50.930;6.926;2022-12-13T06:04:07;33.63;;;19.95;;
1164;SDS011;571;50.930;6.926;2022-12-13T06:06:33;30.38;;;18.40;;
1164;SDS011;571;50.930;6.926;2022-12-13T06:09:00;33.05;;;19.25;;
1164;SDS011;571;50.930;6.926;2022-12-13T06:11:27;30.58;;;20.00;;
1164;SDS011;571;50.930;6.926;2022-12-13T06:13:54;27.95;;;19.95;;
1164;SDS011;571;50.930;6.926;2022-12-13T06:16:21;32.30;;;21.40;;
1164;SDS011;571;50.930;6.926;2022-12-13T06:18:50;37.97;;;22.13;;
1164;SDS011;571;50.930;6.926;2022-12-13T06:21:17;31.95;;;21.02;;
1164;SDS011;571;50.930;6.926;2022-12-13T06:23:44;36.15;;;22.38;;
1164;SDS011;571;50.930;6.926;2022-12-13T06:26:11;35.78;;;23.58;;
1164;SDS011;571;50.930;6.926;2022-12-13T06:28:37;41.10;;;21.65;;
1164;SDS011;571;50.930;6.926;2022-12-13T06:31:04;30.38;;;21.17;;
1164;SDS011;571;50.930;6.926;2022-12-13T06:33:31;32.92;;;22.42;;
1164;SDS011;571;50.930;6.926;2022-12-13T06:36:02;29.27;;;21.80;;
1164;SDS011;571;50.930;6.926;2022-12-13T06:38:29;30.33;;;19.50;;
1164;SDS011;571;50.930;6.926;2022-12-13T06:41:04;34.60;;;22.23;;
1164;SDS011;571;50.930;6.926;2022-12-13T06:43:32;27.98;;;18.02;;
1164;SDS011;571;50.930;6.926;2022-12-13T06:46:00;32.03;;;20.05;;
1164;SDS011;571;50.930;6.926;2022-12-13T06:48:28;30.90;;;20.13;;
1164;SDS011;571;50.930;6.926;2022-12-13T06:50:58;41.15;;;23.10;;
1164;SDS011;571;50.930;6.926;2022-12-13T06:53:27;28.05;;;17.70;;
1164;SDS011;571;50.930;6.926;2022-12-13T06:55:53;23.15;;;15.85;;
1164;SDS011;571;50.930;6.926;2022-12-13T06:58:20;27.70;;;18.48;;
1164;SDS011;571;50.930;6.926;2022-12-13T07:00:48;31.15;;;17.50;;
1164;SDS011;571;50.930;6.926;2022-12-13T07:03:15;26.98;;;16.25;;
1164;SDS011;571;50.930;6.926;2022-12-13T07:05:41;28.45;;;20.13;;
1164;SDS011;571;50.930;6.926;2022-12-13T07:08:09;35.90;;;17.90;;
1164;SDS011;571;50.930;6.926;2022-12-13T07:10:38;26.63;;;18.98;;
1164;SDS011;571;50.930;6.926;2022-12-13T07:13:05;29.38;;;17.45;;
1164;SDS011;571;50.930;6.926;2022-12-13T07:15:32;28.33;;;19.27;;
1164;SDS011;571;50.930;6.926;2022-12-13T07:17:58;33.60;;;18.50;;
1164;SDS011;571;50.930;6.926;2022-12-13T07:20:25;26.15;;;16.58;;
1164;SDS011;571;50.930;6.926;2022-12-13T07:22:52;25.85;;;19.50;;
1164;SDS011;571;50.930;6.926;2022-12-13T07:25:20;25.77;;;17.13;;
1164;SDS011;571;50.930;6.926;2022-12-13T07:27:48;29.63;;;17.25;;
1164;SDS011;571;50.930;6.926;2022-12-13T07:30:21;28.23;;;18.30;;
1164;SDS011;571;50.930;6.926;2022-12-13T07:32:47;33.05;;;17.35;;
1164;SDS011;571;50.930;6.926;2022-12-13T07:35:14;27.10;;;18.15;;
1164;SDS011;571;50.930;6.926;2022-12-13T07:37:41;26.73;;;16.80;;
1164;SDS011;571;50.930;6.926;2022-12-13T07:40:09;23.52;;;16.50;;
1164;SDS011;571;50.930;6.926;2022-12-13T07:42:36;27.95;;;17.20;;
1164;SDS011;571;50.930;6.926;2022-12-13T07:45:04;28.40;;;18.13;;
1164;SDS011;571;50.930;6.926;2022-12-13T07:47:32;37.97;;;19.50;;
1164;SDS011;571;50.930;6.926;2022-12-13T07:49:58;26.52;;;17.60;;
1164;SDS011;571;50.930;6.926;2022-12-13T07:52:25;29.30;;;17.70;;
1164;SDS011;571;50.930;6.926;2022-12-13T07:54:52;30.17;;;21.60;;
1164;SDS011;571;50.930;6.926;2022-12-13T07:57:19;28.92;;;18.70;;
1164;SDS011;571;50.930;6.926;2022-12-13T07:59:46;31.50;;;18.52;;
1164;SDS011;571;50.930;6.926;2022-12-13T08:02:14;29.92;;;19.30;;
1164;SDS011;571;50.930;6.926;2022-12-13T08:04:41;27.88;;;19.92;;
1164;SDS011;571;50.930;6.926;2022-12-13T08:07:08;33.03;;;18.75;;
1164;SDS011;571;50.930;6.926;2022-12-13T08:09:35;34.97;;;20.52;;
1164;SDS011;571;50.930;6.926;2022-12-13T08:12:02;28.25;;;19.50;;
1164;SDS011;571;50.930;6.926;2022-12-13T08:14:29;29.70;;;17.98;;
1164;SDS011;571;50.930;6.926;2022-12-13T08:16:56;38.53;;;23.42;;
1164;SDS011;571;50.930;6.926;2022-12-13T08:19:24;32.60;;;18.95;;
1164;SDS011;571;50.930;6.926;2022-12-13T08:21:51;34.60;;;19.83;;
1164;SDS011;571;50.930;6.926;2022-12-13T08:24:20;36.55;;;19.13;;
1164;SDS011;571;50.930;6.926;2022-12-13T08:26:48;28.55;;;20.13;;
1164;SDS011;571;50.930;6.926;2022-12-13T08:29:14;29.33;;;19.85;;
1164;SDS011;571;50.930;6.926;2022-12-13T08:31:41;28.25;;;18.70;;
1164;SDS011;571;50.930;6.926;2022-12-13T08:34:08;37.65;;;17.92;;
1164;SDS011;571;50.930;6.926;2022-12-13T08:36:36;30.58;;;20.10;;
1164;SDS011;571;50.930;6.926;2022-12-13T08:39:03;29.63;;;18.77;;
1164;SDS011;571;50.930;6.926;2022-12-13T08:41:30;30.40;;;18.35;;
1164;SDS011;571;50.930;6.926;2022-12-13T08:43:56;27.58;;;17.58;;
1164;SDS011;571;50.930;6.926;2022-12-13T08:46:23;24.42;;;16.35;;
1164;SDS011;571;50.930;6.926;2022-12-13T08:48:51;26.20;;;17.20;;
1164;SDS011;571;50.930;6.926;2022-12-13T08:51:18;23.25;;;17.08;;
1164;SDS011;571;50.930;6.926;2022-12-13T08:53:49;26.52;;;15.85;;
1164;SDS011;571;50.930;6.926;2022-12-13T08:56:16;32.03;;;19.92;;
1164;SDS011;571;50.930;6.926;2022-12-13T08:58:47;29.85;;;17.98;;
1164;SDS011;571;50.930;6.926;2022-12-13T09:01:15;29.52;;;16.52;;
1164;SDS011;571;50.930;6.926;2022-12-13T09:03:42;22.58;;;16.75;;
1164;SDS011;571;50.930;6.926;2022-12-13T09:06:10;31.25;;;18.13;;
1164;SDS011;571;50.930;6.926;2022-12-13T09:08:39;24.27;;;15.07;;
1164;SDS011;571;50.930;6.926;2022-12-13T09:11:08;27.08;;;18.25;;
1164;SDS011;571;50.930;6.926;2022-12-13T09:13:36;31.45;;;19.02;;
1164;SDS011;571;50.930;6.926;2022-12-13T09:16:04;30.70;;;19.63;;
1164;SDS011;571;50.930;6.926;2022-12-13T09:18:33;25.92;;;17.42;;
1164;SDS011;571;50.930;6.926;2022-12-13T09:21:00;22.23;;;16.45;;
1164;SDS011;571;50.930;6.926;2022-12-13T09:23:31;21.35;;;15.20;;
1164;SDS011;571;50.930;6.926;2022-12-13T09:25:58;28.58;;;17.15;;
1164;SDS011;571;50.930;6.926;2022-12-13T09:28:27;22.20;;;16.00;;
1164;SDS011;571;50.930;6.926;2022-12-13T09:30:54;22.67;;;16.60;;
1164;SDS011;571;50.930;6.926;2022-12-13T09:33:22;28.67;;;16.75;;
1164;SDS011;571;50.930;6.926;2022-12-13T09:35:51;23.63;;;16.85;;
1164;SDS011;571;50.930;6.926;2022-12-13T09:38:18;24.00;;;14.80;;
1164;SDS011;571;50.930;6.926;2022-12-13T09:40:46;24.95;;;17.38;;
1164;SDS011;571;50.930;6.926;2022-12-13T09:43:20;22.67;;;14.82;;
1164;SDS011;571;50.930;6.926;2022-12-13T09:45:52;23.67;;;15.20;;
1164;SDS011;571;50.930;6.926;2022-12-13T09:48:22;32.78;;;15.65;;
1164;SDS011;571;50.930;6.926;2022-12-13T09:50:49;35.75;;;17.15;;
1164;SDS011;571;50.930;6.926;2022-12-13T09:53:18;24.13;;;14.85;;
1164;SDS011;571;50.930;6.926;2022-12-13T09:55:46;28.77;;;17.15;;
1164;SDS011;571;50.930;6.926;2022-12-13T09:58:15;23.45;;;15.85;;
1164;SDS011;571;50.930;6.926;2022-12-13T10:00:46;23.02;;;15.70;;
1164;SDS011;571;50.930;6.926;2022-12-13T10:03:29;30.60;;;16.80;;
1164;SDS011;571;50.930;6.926;2022-12-13T10:06:18;23.88;;;15.20;;
1164;SDS011;571;50.930;6.926;2022-12-13T10:08:47;23.52;;;15.50;;
1164;SDS011;571;50.930;6.926;2022-12-13T10:11:15;21.02;;;15.48;;
1164;SDS011;571;50.930;6.926;2022-12-13T10:13:44;21.88;;;13.05;;
1164;SDS011;571;50.930;6.926;2022-12-13T10:16:16;22.10;;;15.93;;
1164;SDS011;571;50.930;6.926;2022-12-13T10:18:50;19.88;;;15.30;;
1164;SDS011;571;50.930;6.926;2022-12-13T10:21:18;20.77;;;16.25;;
1164;SDS011;571;50.930;6.926;2022-12-13T10:23:50;17.95;;;13.55;;
1164;SDS011;571;50.930;6.926;2022-12-13T10:26:17;24.45;;;15.68;;
1164;SDS011;571;50.930;6.926;2022-12-13T10:28:44;23.70;;;14.50;;
1164;SDS011;571;50.930;6.926;2022-12-13T10:31:14;20.42;;;13.48;;
1164;SDS011;571;50.930;6.926;2022-12-13T10:33:47;21.63;;;14.13;;
1164;SDS011;571;50.930;6.926;2022-12-13T10:36:30;23.50;;;13.35;;
1164;SDS011;571;50.930;6.926;2022-12-13T10:38:59;27.63;;;17.08;;
1164;SDS011;571;50.930;6.926;2022-12-13T10:41:31;24.92;;;14.82;;
1164;SDS011;571;50.930;6.926;2022-12-13T10:44:07;21.85;;;12.68;;
1164;SDS011;571;50.930;6.926;2022-12-13T10:46:40;20.55;;;14.35;;
1164;SDS011;571;50.930;6.926;2022-12-13T10:49:15;20.05;;;13.80;;
1164;SDS011;571;50.930;6.926;2022-12-13T10:51:47;22.60;;;12.40;;
1164;SDS011;571;50.930;6.926;2022-12-13T10:54:16;21.17;;;14.18;;
1164;SDS011;571;50.930;6.926;2022-12-13T10:56:50;21.45;;;14.85;;
1164;SDS011;571;50.930;6.926;2022-12-13T10:59:24;24.38;;;16.05;;
1164;SDS011;571;50.930;6.926;2022-12-13T11:01:56;21.17;;;15.65;;
1164;SDS011;571;50.930;6.926;2022-12-13T11:04:32;21.47;;;14.53;;
1164;SDS011;571;50.930;6.926;2022-12-13T11:07:00;12.52;;;8.80;;
1164;SDS011;571;50.930;6.926;2022-12-13T11:10:15;19.75;;;12.35;;
1164;SDS011;571;50.930;6.926;2022-12-13T11:13:21;20.30;;;13.77;;
1164;SDS011;571;50.930;6.926;2022-12-13T11:15:52;17.67;;;13.13;;
1164;SDS011;571;50.930;6.926;2022-12-13T11:18:31;24.10;;;13.43;;
1164;SDS011;571;50.930;6.926;2022-12-13T11:21:09;20.40;;;13.33;;
1164;SDS011;571;50.930;6.926;2022-12-13T11:23:42;16.27;;;12.33;;
1164;SDS011;571;50.930;6.926;2022-12-13T11:26:13;22.50;;;14.13;;
1164;SDS011;571;50.930;6.926;2022-12-13T11:31:56;17.13;;;11.50;;
1164;SDS011;571;50.930;6.926;2022-12-13T11:34:30;22.53;;;12.70;;
1164;SDS011;571;50.930;6.926;2022-12-13T11:37:10;19.47;;;13.90;;
1164;SDS011;571;50.930;6.926;2022-12-13T11:39:47;20.13;;;12.48;;
1164;SDS011;571;50.930;6.926;2022-12-13T11:42:21;17.53;;;12.33;;
1164;SDS011;571;50.930;6.926;2022-12-13T11:44:55;22.92;;;13.02;;
1164;SDS011;571;50.930;6.926;2022-12-13T11:47:29;21.10;;;12.43;;
1164;SDS011;571;50.930;6.926;2022-12-13T11:50:01;17.95;;;13.05;;
1164;SDS011;571;50.930;6.926;2022-12-13T11:52:33;18.95;;;13.18;;
1164;SDS011;571;50.930;6.926;2022-12-13T11:55:07;19.48;;;12.60;;
1164;SDS011;571;50.930;6.926;2022-12-13T11:57:58;22.33;;;14.23;;
1164;SDS011;571;50.930;6.926;2022-12-13T12:00:50;25.00;;;13.37;;
1164;SDS011;571;50.930;6.926;2022-12-13T12:03:34;19.98;;;12.77;;
1164;SDS011;571;50.930;6.926;2022-12-13T12:06:07;19.50;;;13.57;;
1164;SDS011;571;50.930;6.926;2022-12-13T12:08:39;19.30;;;12.40;;
1164;SDS011;571;50.930;6.926;2022-12-13T12:11:11;20.40;;;12.90;;
1164;SDS011;571;50.930;6.926;2022-12-13T12:13:46;20.23;;;12.47;;
1164;SDS011;571;50.930;6.926;2022-12-13T12:16:19;19.77;;;13.90;;
1164;SDS011;571;50.930;6.926;2022-12-13T12:18:54;25.63;;;13.55;;
1164;SDS011;571;50.930;6.926;2022-12-13T12:21:24;14.38;;;11.77;;
1164;SDS011;571;50.930;6.926;2022-12-13T12:24:01;17.30;;;11.47;;
1164;SDS011;571;50.930;6.926;2022-12-13T12:26:39;19.33;;;13.83;;
1164;SDS011;571;50.930;6.926;2022-12-13T12:29:18;18.43;;;14.17;;
1164;SDS011;571;50.930;6.926;2022-12-13T12:32:06;19.83;;;13.03;;
1164;SDS011;571;50.930;6.926;2022-12-13T12:34:43;14.87;;;11.00;;
1164;SDS011;571;50.930;6.926;2022-12-13T12:37:16;18.93;;;13.90;;
1164;SDS011;571;50.930;6.926;2022-12-13T12:39:54;19.60;;;13.17;;
1164;SDS011;571;50.930;6.926;2022-12-13T12:42:47;18.13;;;12.83;;
1164;SDS011;571;50.930;6.926;2022-12-13T12:45:42;15.63;;;12.13;;
1164;SDS011;571;50.930;6.926;2022-12-13T12:48:43;17.58;;;12.52;;
1164;SDS011;571;50.930;6.926;2022-12-13T12:51:42;19.00;;;12.63;;
1164;SDS011;571;50.930;6.926;2022-12-13T12:54:22;16.57;;;12.00;;
1164;SDS011;571;50.930;6.926;2022-12-13T12:57:10;18.20;;;12.73;;
1164;SDS011;571;50.930;6.926;2022-12-13T12:59:49;17.47;;;12.80;;
1164;SDS011;571;50.930;6.926;2022-12-13T13:02:32;18.10;;;12.20;;
1164;SDS011;571;50.930;6.926;2022-12-13T13:05:12;13.67;;;9.80;;
1164;SDS011;571;50.930;6.926;2022-12-13T13:08:08;15.18;;;9.77;;
1164;SDS011;571;50.930;6.926;2022-12-13T13:10:39;13.33;;;11.47;;
1164;SDS011;571;50.930;6.926;2022-12-13T13:16:00;12.35;;;9.88;;
1164;SDS011;571;50.930;6.926;2022-12-13T13:21:33;16.88;;;10.95;;
1164;SDS011;571;50.930;6.926;2022-12-13T13:24:12;16.35;;;10.50;;
1164;SDS011;571;50.930;6.926;2022-12-13T13:26:41;17.40;;;10.30;;
1164;SDS011;571;50.930;6.926;2022-12-13T13:29:21;15.75;;;12.48;;
1164;SDS011;571;50.930;6.926;2022-12-13T13:31:59;14.07;;;10.50;;
1164;SDS011;571;50.930;6.926;2022-12-13T13:34:29;17.93;;;11.57;;
1164;SDS011;571;50.930;6.926;2022-12-13T13:36:58;13.77;;;10.77;;
1164;SDS011;571;50.930;6.926;2022-12-13T13:42:26;11.05;;;8.50;;
1164;SDS011;571;50.930;6.926;2022-12-13T13:47:49;17.50;;;10.00;;
1164;SDS011;571;50.930;6.926;2022-12-13T14:00:02;13.47;;;9.87;;
1164;SDS011;571;50.930;6.926;2022-12-13T14:02:57;13.90;;;10.60;;
1164;SDS011;571;50.930;6.926;2022-12-13T14:09:12;15.80;;;9.87;;
1164;SDS011;571;50.930;6.926;2022-12-13T14:12:11;15.80;;;10.63;;
1164;SDS011;571;50.930;6.926;2022-12-13T14:15:11;13.00;;;9.97;;
1164;SDS011;571;50.930;6.926;2022-12-13T14:18:23;12.27;;;9.03;;
1164;SDS011;571;50.930;6.926;2022-12-13T14:21:28;18.70;;;10.60;;
1164;SDS011;571;50.930;6.926;2022-12-13T14:27:00;14.77;;;10.25;;
1164;SDS011;571;50.930;6.926;2022-12-13T14:29:38;15.93;;;10.80;;
1164;SDS011;571;50.930;6.926;2022-12-13T14:32:16;16.33;;;10.27;;
1164;SDS011;571;50.930;6.926;2022-12-13T14:34:47;15.50;;;10.70;;
1164;SDS011;571;50.930;6.926;2022-12-13T14:37:31;18.60;;;13.00;;
1164;SDS011;571;50.930;6.926;2022-12-13T14:41:22;16.90;;;9.93;;
1164;SDS011;571;50.930;6.926;2022-12-13T14:43:49;13.10;;;10.60;;
1164;SDS011;571;50.930;6.926;2022-12-13T14:46:16;17.20;;;11.40;;
1164;SDS011;571;50.930;6.926;2022-12-13T14:48:43;17.63;;;10.33;;
1164;SDS011;571;50.930;6.926;2022-12-13T14:51:32;14.43;;;10.87;;
1164;SDS011;571;50.930;6.926;2022-12-13T14:54:18;17.20;;;11.50;;
1164;SDS011;571;50.930;6.926;2022-12-13T14:56:53;12.93;;;9.07;;
1164;SDS011;571;50.930;6.926;2022-12-13T14:59:21;21.37;;;9.87;;
1164;SDS011;571;50.930;6.926;2022-12-13T15:01:52;16.17;;;10.33;;
1164;SDS011;571;50.930;6.926;2022-12-13T15:04:27;16.87;;;10.37;;
1164;SDS011;571;50.930;6.926;2022-12-13T15:13:11;17.53;;;10.77;;
1164;SDS011;571;50.930;6.926;2022-12-13T15:16:16;15.93;;;10.77;;
1164;SDS011;571;50.930;6.926;2022-12-13T15:18:58;15.10;;;9.05;;
1164;SDS011;571;50.930;6.926;2022-12-13T15:21:54;15.60;;;10.43;;
1164;SDS011;571;50.930;6.926;2022-12-13T15:24:41;12.68;;;8.45;;
1164;SDS011;571;50.930;6.926;2022-12-13T15:27:13;14.33;;;8.63;;
1164;SDS011;571;50.930;6.926;2022-12-13T15:29:44;14.03;;;8.33;;
1164;SDS011;571;50.930;6.926;2022-12-13T15:32:16;14.60;;;10.15;;
1164;SDS011;571;50.930;6.926;2022-12-13T15:34:47;15.25;;;9.82;;
1164;SDS011;571;50.930;6.926;2022-12-13T15:37:15;13.50;;;9.50;;
1164;SDS011;571;50.930;6.926;2022-12-13T15:39:45;16.13;;;9.52;;
1164;SDS011;571;50.930;6.926;2022-12-13T15:42:14;12.82;;;9.15;;
1164;SDS011;571;50.930;6.926;2022-12-13T15:44:46;12.73;;;9.27;;
1164;SDS011;571;50.930;6.926;2022-12-13T15:47:17;15.07;;;10.05;;
1164;SDS011;571;50.930;6.926;2022-12-13T15:49:48;16.92;;;9.73;;
1164;SDS011;571;50.930;6.926;2022-12-13T15:55:16;13.80;;;10.10;;
1164;SDS011;571;50.930;6.926;2022-12-13T15:57:51;10.23;;;8.60;;
1164;SDS011;571;50.930;6.926;2022-12-13T16:00:22;13.88;;;10.00;;
1164;SDS011;571;50.930;6.926;2022-12-13T16:02:51;13.75;;;10.25;;
1164;SDS011;571;50.930;6.926;2022-12-13T16:05:25;18.03;;;10.43;;
1164;SDS011;571;50.930;6.926;2022-12-13T16:07:54;18.00;;;11.25;;
1164;SDS011;571;50.930;6.926;2022-12-13T16:10:24;14.48;;;9.63;;
1164;SDS011;571;50.930;6.926;2022-12-13T16:12:53;13.47;;;10.00;;
1164;SDS011;571;50.930;6.926;2022-12-13T16:15:27;14.88;;;10.27;;
1164;SDS011;571;50.930;6.926;2022-12-13T16:18:04;16.55;;;11.07;;
1164;SDS011;571;50.930;6.926;2022-12-13T16:20:32;14.30;;;9.10;;
1164;SDS011;571;50.930;6.926;2022-12-13T16:23:01;11.80;;;8.07;;
1164;SDS011;571;50.930;6.926;2022-12-13T16:25:30;14.23;;;9.65;;
1164;SDS011;571;50.930;6.926;2022-12-13T16:27:58;14.13;;;9.52;;
1164;SDS011;571;50.930;6.926;2022-12-13T16:30:26;15.63;;;11.23;;
1164;SDS011;571;50.930;6.926;2022-12-13T16:33:14;13.20;;;9.57;;
1164;SDS011;571;50.930;6.926;2022-12-13T16:35:41;14.55;;;9.85;;
1164;SDS011;571;50.930;6.926;2022-12-13T16:38:08;16.13;;;9.53;;
1164;SDS011;571;50.930;6.926;2022-12-13T16:40:36;11.02;;;9.27;;
1164;SDS011;571;50.930;6.926;2022-12-13T16:43:03;16.52;;;11.90;;
1164;SDS011;571;50.930;6.926;2022-12-13T16:45:34;12.23;;;10.05;;
1164;SDS011;571;50.930;6.926;2022-12-13T16:48:04;14.83;;;10.10;;
1164;SDS011;571;50.930;6.926;2022-12-13T16:53:03;16.05;;;9.32;;
1164;SDS011;571;50.930;6.926;2022-12-13T16:55:30;16.38;;;10.50;;
1164;SDS011;571;50.930;6.926;2022-12-13T16:57:57;13.45;;;9.90;;
1164;SDS011;571;50.930;6.926;2022-12-13T17:00:25;14.40;;;10.52;;
1164;SDS011;571;50.930;6.926;2022-12-13T17:02:52;15.63;;;9.60;;
1164;SDS011;571;50.930;6.926;2022-12-13T17:05:19;11.07;;;9.90;;
1164;SDS011;571;50.930;6.926;2022-12-13T17:07:48;12.63;;;9.07;;
1164;SDS011;571;50.930;6.926;2022-12-13T17:10:15;15.23;;;9.10;;
1164;SDS011;571;50.930;6.926;2022-12-13T17:12:42;13.68;;;8.88;;
1164;SDS011;571;50.930;6.926;2022-12-13T17:15:10;13.77;;;9.93;;
1164;SDS011;571;50.930;6.926;2022-12-13T17:17:39;11.23;;;9.05;;
1164;SDS011;571;50.930;6.926;2022-12-13T17:20:08;13.60;;;9.63;;
1164;SDS011;571;50.930;6.926;2022-12-13T17:22:36;12.40;;;9.40;;
1164;SDS011;571;50.930;6.926;2022-12-13T17:25:05;10.65;;;9.65;;
1164;SDS011;571;50.930;6.926;2022-12-13T17:27:33;16.35;;;9.93;;
1164;SDS011;571;50.930;6.926;2022-12-13T17:30:02;11.65;;;9.15;;
1164;SDS011;571;50.930;6.926;2022-12-13T17:32:31;16.05;;;11.23;;
1164;SDS011;571;50.930;6.926;2022-12-13T17:34:57;14.40;;;9.20;;
1164;SDS011;571;50.930;6.926;2022-12-13T17:37:24;16.75;;;10.23;;
1164;SDS011;571;50.930;6.926;2022-12-13T17:39:51;15.00;;;10.35;;
1164;SDS011;571;50.930;6.926;2022-12-13T17:42:19;14.75;;;9.95;;
1164;SDS011;571;50.930;6.926;2022-12-13T17:44:46;12.63;;;9.00;;
1164;SDS011;571;50.930;6.926;2022-12-13T17:47:12;12.40;;;9.55;;
1164;SDS011;571;50.930;6.926;2022-12-13T17:49:39;16.83;;;9.93;;
1164;SDS011;571;50.930;6.926;2022-12-13T17:52:06;11.93;;;8.82;;
1164;SDS011;571;50.930;6.926;2022-12-13T17:54:35;11.77;;;10.13;;
1164;SDS011;571;50.930;6.926;2022-12-13T17:57:01;11.30;;;9.10;;
1164;SDS011;571;50.930;6.926;2022-12-13T17:59:40;13.00;;;9.03;;
1164;SDS011;571;50.930;6.926;2022-12-13T18:02:10;11.07;;;8.30;;
1164;SDS011;571;50.930;6.926;2022-12-13T18:04:38;14.50;;;8.63;;
1164;SDS011;571;50.930;6.926;2022-12-13T18:07:05;11.60;;;8.40;;
1164;SDS011;571;50.930;6.926;2022-12-13T18:09:32;13.98;;;9.05;;
1164;SDS011;571;50.930;6.926;2022-12-13T18:11:59;12.00;;;9.50;;
1164;SDS011;571;50.930;6.926;2022-12-13T18:14:25;14.47;;;11.60;;
1164;SDS011;571;50.930;6.926;2022-12-13T18:16:53;10.70;;;7.95;;
1164;SDS011;571;50.930;6.926;2022-12-13T18:19:20;11.77;;;8.40;;
1164;SDS011;571;50.930;6.926;2022-12-13T18:21:49;16.90;;;9.50;;
1164;SDS011;571;50.930;6.926;2022-12-13T18:24:16;12.40;;;9.13;;
1164;SDS011;571;50.930;6.926;2022-12-13T18:26:43;12.43;;;7.97;;
1164;SDS011;571;50.930;6.926;2022-12-13T18:29:09;13.82;;;8.93;;
1164;SDS011;571;50.930;6.926;2022-12-13T18:31:36;11.23;;;8.10;;
1164;SDS011;571;50.930;6.926;2022-12-13T18:34:05;12.57;;;8.40;;
1164;SDS011;571;50.930;6.926;2022-12-13T18:36:32;11.98;;;8.02;;
1164;SDS011;571;50.930;6.926;2022-12-13T18:38:59;12.55;;;9.07;;
1164;SDS011;571;50.930;6.926;2022-12-13T18:41:27;11.30;;;7.88;;
1164;SDS011;571;50.930;6.926;2022-12-13T18:43:55;14.10;;;10.32;;
1164;SDS011;571;50.930;6.926;2022-12-13T18:46:23;13.02;;;9.07;;
1164;SDS011;571;50.930;6.926;2022-12-13T18:48:49;14.20;;;9.67;;
1164;SDS011;571;50.930;6.926;2022-12-13T18:51:18;16.33;;;9.75;;
1164;SDS011;571;50.930;6.926;2022-12-13T18:53:44;14.25;;;9.98;;
1164;SDS011;571;50.930;6.926;2022-12-13T18:56:12;12.38;;;8.50;;
1164;SDS011;571;50.930;6.926;2022-12-13T18:58:40;12.88;;;9.13;;
1164;SDS011;571;50.930;6.926;2022-12-13T19:01:09;17.23;;;9.38;;
1164;SDS011;571;50.930;6.926;2022-12-13T19:03:40;13.57;;;9.45;;
1164;SDS011;571;50.930;6.926;2022-12-13T19:06:10;15.18;;;9.52;;
1164;SDS011;571;50.930;6.926;2022-12-13T19:08:42;11.63;;;8.70;;
1164;SDS011;571;50.930;6.926;2022-12-13T19:11:11;13.05;;;10.35;;
1164;SDS011;571;50.930;6.926;2022-12-13T19:13:38;11.23;;;8.57;;
1164;SDS011;571;50.930;6.926;2022-12-13T19:16:07;13.25;;;8.95;;
1164;SDS011;571;50.930;6.926;2022-12-13T19:18:35;10.85;;;8.38;;
1164;SDS011;571;50.930;6.926;2022-12-13T19:21:05;13.43;;;8.25;;
1164;SDS011;571;50.930;6.926;2022-12-13T19:23:32;10.98;;;9.30;;
1164;SDS011;571;50.930;6.926;2022-12-13T19:26:06;9.32;;;8.07;;
1164;SDS011;571;50.930;6.926;2022-12-13T19:28:37;10.73;;;8.48;;
1164;SDS011;571;50.930;6.926;2022-12-13T19:31:07;17.48;;;9.73;;
1164;SDS011;571;50.930;6.926;2022-12-13T19:33:36;15.57;;;9.27;;
1164;SDS011;571;50.930;6.926;2022-12-13T19:36:03;9.90;;;8.07;;
1164;SDS011;571;50.930;6.926;2022-12-13T19:38:31;15.18;;;8.93;;
1164;SDS011;571;50.930;6.926;2022-12-13T19:40:58;11.43;;;8.73;;
1164;SDS011;571;50.930;6.926;2022-12-13T19:43:27;13.30;;;9.35;;
1164;SDS011;571;50.930;6.926;2022-12-13T19:45:54;13.55;;;8.77;;
1164;SDS011;571;50.930;6.926;2022-12-13T19:48:20;18.35;;;10.27;;
1164;SDS011;571;50.930;6.926;2022-12-13T19:50:47;14.82;;;8.85;;
1164;SDS011;571;50.930;6.926;2022-12-13T19:53:14;12.95;;;9.05;;
1164;SDS011;571;50.930;6.926;2022-12-13T19:55:41;12.18;;;9.70;;
1164;SDS011;571;50.930;6.926;2022-12-13T19:58:10;15.00;;;8.75;;